sensor_id;sensor_type;location;lat;lon;timestamp;P1;durP1;ratioP1;P2;durP2;ratioP2
21721;SDS011;11023;48.274;7.794;2022-09-28T00:01:51;10.77;;;1.90;;
21721;SDS011;11023;48.274;7.794;2022-09-28T00:04:17;5.65;;;1.60;;
21721;SDS011;11023;48.274;7.794;2022-09-28T00:06:42;10.52;;;1.80;;
21721;SDS011;11023;48.274;7.794;2022-09-28T00:09:08;10.57;;;2.28;;
21721;SDS011;11023;48.274;7.794;2022-09-28T00:11:34;10.15;;;1.77;;
21721;SDS011;11023;48.274;7.794;2022-09-28T00:14:00;8.07;;;1.60;;
21721;SDS011;11023;48.274;7.794;2022-09-28T00:16:31;6.57;;;1.90;;
21721;SDS011;11023;48.274;7.794;2022-09-28T00:18:59;7.72;;;2.08;;
21721;SDS011;11023;48.274;7.794;2022-09-28T00:21:27;11.05;;;1.67;;
21721;SDS011;11023;48.274;7.794;2022-09-28T00:23:55;6.78;;;1.60;;
21721;SDS011;11023;48.274;7.794;2022-09-28T00:26:52;6.57;;;1.60;;
21721;SDS011;11023;48.274;7.794;2022-09-28T00:31:50;9.63;;;1.70;;
21721;SDS011;11023;48.274;7.794;2022-09-28T00:34:16;5.20;;;1.55;;
21721;SDS011;11023;48.274;7.794;2022-09-28T00:36:44;7.63;;;1.70;;
21721;SDS011;11023;48.274;7.794;2022-09-28T00:39:10;9.23;;;1.70;;
21721;SDS011;11023;48.274;7.794;2022-09-28T00:41:37;7.18;;;1.40;;
21721;SDS011;11023;48.274;7.794;2022-09-28T00:46:47;7.85;;;1.90;;
21721;SDS011;11023;48.274;7.794;2022-09-28T00:49:14;8.05;;;1.65;;
21721;SDS011;11023;48.274;7.794;2022-09-28T00:51:46;8.23;;;1.70;;
21721;SDS011;11023;48.274;7.794;2022-09-28T00:54:13;6.95;;;1.40;;
21721;SDS011;11023;48.274;7.794;2022-09-28T00:56:41;5.40;;;1.65;;
21721;SDS011;11023;48.274;7.794;2022-09-28T00:59:09;8.75;;;1.88;;
21721;SDS011;11023;48.274;7.794;2022-09-28T01:01:35;7.78;;;1.67;;
21721;SDS011;11023;48.274;7.794;2022-09-28T01:04:01;8.05;;;1.50;;
21721;SDS011;11023;48.274;7.794;2022-09-28T01:06:29;6.57;;;1.40;;
21721;SDS011;11023;48.274;7.794;2022-09-28T01:08:57;5.78;;;1.63;;
21721;SDS011;11023;48.274;7.794;2022-09-28T01:11:27;11.55;;;1.95;;
21721;SDS011;11023;48.274;7.794;2022-09-28T01:13:56;7.13;;;1.52;;
21721;SDS011;11023;48.274;7.794;2022-09-28T01:19:38;6.22;;;1.27;;
21721;SDS011;11023;48.274;7.794;2022-09-28T01:27:39;6.13;;;1.88;;
21721;SDS011;11023;48.274;7.794;2022-09-28T01:38:15;7.95;;;1.50;;
21721;SDS011;11023;48.274;7.794;2022-09-28T01:40:46;8.80;;;1.58;;
21721;SDS011;11023;48.274;7.794;2022-09-28T01:43:14;7.75;;;1.80;;
21721;SDS011;11023;48.274;7.794;2022-09-28T01:45:47;6.28;;;1.48;;
21721;SDS011;11023;48.274;7.794;2022-09-28T01:48:25;7.10;;;1.70;;
21721;SDS011;11023;48.274;7.794;2022-09-28T01:50:58;4.88;;;1.20;;
21721;SDS011;11023;48.274;7.794;2022-09-28T01:53:31;5.20;;;1.30;;
21721;SDS011;11023;48.274;7.794;2022-09-28T01:56:18;8.88;;;1.35;;
21721;SDS011;11023;48.274;7.794;2022-09-28T02:01:28;5.47;;;1.45;;
21721;SDS011;11023;48.274;7.794;2022-09-28T02:04:16;7.45;;;1.38;;
21721;SDS011;11023;48.274;7.794;2022-09-28T02:06:55;3.38;;;0.85;;
21721;SDS011;11023;48.274;7.794;2022-09-28T02:09:30;4.72;;;0.90;;
21721;SDS011;11023;48.274;7.794;2022-09-28T02:12:04;7.55;;;1.50;;
21721;SDS011;11023;48.274;7.794;2022-09-28T02:14:38;5.30;;;1.42;;
21721;SDS011;11023;48.274;7.794;2022-09-28T02:17:07;4.85;;;1.38;;
21721;SDS011;11023;48.274;7.794;2022-09-28T02:19:34;4.05;;;0.90;;
21721;SDS011;11023;48.274;7.794;2022-09-28T02:24:45;3.67;;;1.00;;
21721;SDS011;11023;48.274;7.794;2022-09-28T02:27:33;5.57;;;1.10;;
21721;SDS011;11023;48.274;7.794;2022-09-28T02:30:16;3.90;;;1.03;;
21721;SDS011;11023;48.274;7.794;2022-09-28T02:32:43;5.00;;;1.15;;
21721;SDS011;11023;48.274;7.794;2022-09-28T02:35:13;3.63;;;1.00;;
21721;SDS011;11023;48.274;7.794;2022-09-28T02:37:40;4.28;;;1.10;;
21721;SDS011;11023;48.274;7.794;2022-09-28T02:40:13;3.63;;;1.30;;
21721;SDS011;11023;48.274;7.794;2022-09-28T02:43:12;4.05;;;1.17;;
21721;SDS011;11023;48.274;7.794;2022-09-28T02:51:05;7.63;;;1.40;;
21721;SDS011;11023;48.274;7.794;2022-09-28T02:53:52;5.43;;;1.25;;
21721;SDS011;11023;48.274;7.794;2022-09-28T03:05:11;4.80;;;1.20;;
21721;SDS011;11023;48.274;7.794;2022-09-28T03:07:44;4.85;;;1.20;;
21721;SDS011;11023;48.274;7.794;2022-09-28T03:10:40;5.43;;;1.42;;
21721;SDS011;11023;48.274;7.794;2022-09-28T03:13:11;2.88;;;1.15;;
21721;SDS011;11023;48.274;7.794;2022-09-28T03:15:38;2.63;;;0.95;;
21721;SDS011;11023;48.274;7.794;2022-09-28T03:18:05;4.07;;;0.90;;
21721;SDS011;11023;48.274;7.794;2022-09-28T03:20:32;5.20;;;1.40;;
21721;SDS011;11023;48.274;7.794;2022-09-28T03:22:58;5.32;;;1.45;;
21721;SDS011;11023;48.274;7.794;2022-09-28T03:25:25;4.28;;;1.10;;
21721;SDS011;11023;48.274;7.794;2022-09-28T03:27:50;4.57;;;1.10;;
21721;SDS011;11023;48.274;7.794;2022-09-28T03:30:16;3.35;;;0.90;;
21721;SDS011;11023;48.274;7.794;2022-09-28T03:32:42;5.00;;;0.80;;
21721;SDS011;11023;48.274;7.794;2022-09-28T03:35:08;3.70;;;0.98;;
21721;SDS011;11023;48.274;7.794;2022-09-28T03:37:34;3.75;;;0.93;;
21721;SDS011;11023;48.274;7.794;2022-09-28T03:40:00;2.80;;;0.80;;
21721;SDS011;11023;48.274;7.794;2022-09-28T03:42:26;2.97;;;0.63;;
21721;SDS011;11023;48.274;7.794;2022-09-28T03:44:51;5.25;;;0.93;;
21721;SDS011;11023;48.274;7.794;2022-09-28T03:47:17;3.03;;;0.63;;
21721;SDS011;11023;48.274;7.794;2022-09-28T03:49:43;4.00;;;1.05;;
21721;SDS011;11023;48.274;7.794;2022-09-28T03:52:09;3.38;;;0.60;;
21721;SDS011;11023;48.274;7.794;2022-09-28T03:54:36;2.08;;;0.80;;
21721;SDS011;11023;48.274;7.794;2022-09-28T03:57:01;2.55;;;0.60;;
21721;SDS011;11023;48.274;7.794;2022-09-28T03:59:27;4.05;;;0.60;;
21721;SDS011;11023;48.274;7.794;2022-09-28T04:01:53;3.65;;;0.75;;
21721;SDS011;11023;48.274;7.794;2022-09-28T04:04:18;1.45;;;0.60;;
21721;SDS011;11023;48.274;7.794;2022-09-28T04:06:44;2.10;;;0.80;;
21721;SDS011;11023;48.274;7.794;2022-09-28T04:09:10;5.28;;;0.88;;
21721;SDS011;11023;48.274;7.794;2022-09-28T04:11:36;1.85;;;0.60;;
21721;SDS011;11023;48.274;7.794;2022-09-28T04:14:02;3.13;;;0.70;;
21721;SDS011;11023;48.274;7.794;2022-09-28T04:16:27;2.67;;;0.70;;
21721;SDS011;11023;48.274;7.794;2022-09-28T04:18:53;5.15;;;0.80;;
21721;SDS011;11023;48.274;7.794;2022-09-28T04:21:19;3.40;;;0.60;;
21721;SDS011;11023;48.274;7.794;2022-09-28T04:23:45;3.83;;;0.93;;
21721;SDS011;11023;48.274;7.794;2022-09-28T04:26:20;5.90;;;0.82;;
21721;SDS011;11023;48.274;7.794;2022-09-28T04:28:48;2.92;;;0.70;;
21721;SDS011;11023;48.274;7.794;2022-09-28T04:31:36;1.83;;;0.77;;
21721;SDS011;11023;48.274;7.794;2022-09-28T04:34:08;2.53;;;0.65;;
21721;SDS011;11023;48.274;7.794;2022-09-28T04:36:34;3.65;;;0.80;;
21721;SDS011;11023;48.274;7.794;2022-09-28T04:39:01;3.20;;;1.20;;
21721;SDS011;11023;48.274;7.794;2022-09-28T04:41:27;8.85;;;1.17;;
21721;SDS011;11023;48.274;7.794;2022-09-28T04:43:52;5.10;;;1.55;;
21721;SDS011;11023;48.274;7.794;2022-09-28T04:46:18;3.63;;;1.10;;
21721;SDS011;11023;48.274;7.794;2022-09-28T04:48:44;3.28;;;1.02;;
21721;SDS011;11023;48.274;7.794;2022-09-28T04:51:10;3.47;;;1.23;;
21721;SDS011;11023;48.274;7.794;2022-09-28T04:53:36;3.28;;;1.33;;
21721;SDS011;11023;48.274;7.794;2022-09-28T04:56:04;5.07;;;1.27;;
21721;SDS011;11023;48.274;7.794;2022-09-28T04:58:31;5.50;;;1.27;;
21721;SDS011;11023;48.274;7.794;2022-09-28T05:00:59;4.45;;;1.20;;
21721;SDS011;11023;48.274;7.794;2022-09-28T05:03:27;6.13;;;1.70;;
21721;SDS011;11023;48.274;7.794;2022-09-28T05:05:53;3.42;;;1.10;;
21721;SDS011;11023;48.274;7.794;2022-09-28T05:08:19;6.82;;;1.08;;
21721;SDS011;11023;48.274;7.794;2022-09-28T05:10:45;3.58;;;1.00;;
21721;SDS011;11023;48.274;7.794;2022-09-28T05:13:11;4.72;;;1.15;;
21721;SDS011;11023;48.274;7.794;2022-09-28T05:15:38;3.83;;;0.90;;
21721;SDS011;11023;48.274;7.794;2022-09-28T05:18:05;3.90;;;0.90;;
21721;SDS011;11023;48.274;7.794;2022-09-28T05:20:32;3.50;;;0.85;;
21721;SDS011;11023;48.274;7.794;2022-09-28T05:22:58;2.95;;;0.90;;
21721;SDS011;11023;48.274;7.794;2022-09-28T05:25:23;2.10;;;0.68;;
21721;SDS011;11023;48.274;7.794;2022-09-28T05:27:55;2.35;;;0.80;;
21721;SDS011;11023;48.274;7.794;2022-09-28T05:30:22;2.38;;;0.70;;
21721;SDS011;11023;48.274;7.794;2022-09-28T05:32:48;2.47;;;0.80;;
21721;SDS011;11023;48.274;7.794;2022-09-28T05:35:16;2.22;;;0.80;;
21721;SDS011;11023;48.274;7.794;2022-09-28T05:37:42;2.00;;;0.90;;
21721;SDS011;11023;48.274;7.794;2022-09-28T05:40:08;2.97;;;0.93;;
21721;SDS011;11023;48.274;7.794;2022-09-28T05:42:35;1.60;;;0.65;;
21721;SDS011;11023;48.274;7.794;2022-09-28T05:45:01;2.30;;;0.90;;
21721;SDS011;11023;48.274;7.794;2022-09-28T05:47:27;1.80;;;0.88;;
21721;SDS011;11023;48.274;7.794;2022-09-28T05:49:54;1.25;;;0.65;;
21721;SDS011;11023;48.274;7.794;2022-09-28T05:52:20;4.43;;;0.85;;
21721;SDS011;11023;48.274;7.794;2022-09-28T05:54:46;1.75;;;0.55;;
21721;SDS011;11023;48.274;7.794;2022-09-28T05:57:13;2.28;;;0.65;;
21721;SDS011;11023;48.274;7.794;2022-09-28T05:59:39;3.88;;;0.93;;
21721;SDS011;11023;48.274;7.794;2022-09-28T06:02:05;1.90;;;0.88;;
21721;SDS011;11023;48.274;7.794;2022-09-28T06:04:31;2.10;;;0.65;;
21721;SDS011;11023;48.274;7.794;2022-09-28T06:06:57;1.40;;;0.80;;
21721;SDS011;11023;48.274;7.794;2022-09-28T06:09:23;3.13;;;1.00;;
21721;SDS011;11023;48.274;7.794;2022-09-28T06:11:51;3.00;;;1.60;;
21721;SDS011;11023;48.274;7.794;2022-09-28T06:14:17;2.50;;;0.75;;
21721;SDS011;11023;48.274;7.794;2022-09-28T06:16:43;1.77;;;0.68;;
21721;SDS011;11023;48.274;7.794;2022-09-28T06:19:10;1.75;;;0.65;;
21721;SDS011;11023;48.274;7.794;2022-09-28T06:21:37;2.55;;;0.88;;
21721;SDS011;11023;48.274;7.794;2022-09-28T06:24:03;2.95;;;0.60;;
21721;SDS011;11023;48.274;7.794;2022-09-28T06:26:30;1.50;;;0.70;;
21721;SDS011;11023;48.274;7.794;2022-09-28T06:28:55;4.82;;;0.80;;
21721;SDS011;11023;48.274;7.794;2022-09-28T06:31:21;4.13;;;0.70;;
21721;SDS011;11023;48.274;7.794;2022-09-28T06:33:50;2.90;;;0.60;;
21721;SDS011;11023;48.274;7.794;2022-09-28T06:36:16;2.28;;;0.82;;
21721;SDS011;11023;48.274;7.794;2022-09-28T06:38:43;3.45;;;0.65;;
21721;SDS011;11023;48.274;7.794;2022-09-28T06:41:09;2.42;;;0.60;;
21721;SDS011;11023;48.274;7.794;2022-09-28T06:43:36;2.00;;;0.68;;
21721;SDS011;11023;48.274;7.794;2022-09-28T06:46:03;1.90;;;0.60;;
21721;SDS011;11023;48.274;7.794;2022-09-28T06:48:31;2.40;;;0.85;;
21721;SDS011;11023;48.274;7.794;2022-09-28T06:50:57;0.90;;;0.60;;
21721;SDS011;11023;48.274;7.794;2022-09-28T06:53:24;1.58;;;0.75;;
21721;SDS011;11023;48.274;7.794;2022-09-28T06:55:52;1.83;;;0.80;;
21721;SDS011;11023;48.274;7.794;2022-09-28T06:58:18;1.30;;;0.73;;
21721;SDS011;11023;48.274;7.794;2022-09-28T07:00:45;1.55;;;0.80;;
21721;SDS011;11023;48.274;7.794;2022-09-28T07:03:13;1.77;;;0.55;;
21721;SDS011;11023;48.274;7.794;2022-09-28T07:05:41;1.63;;;0.63;;
21721;SDS011;11023;48.274;7.794;2022-09-28T07:08:08;1.10;;;0.55;;
21721;SDS011;11023;48.274;7.794;2022-09-28T07:10:34;1.70;;;0.60;;
21721;SDS011;11023;48.274;7.794;2022-09-28T07:13:04;1.20;;;0.63;;
21721;SDS011;11023;48.274;7.794;2022-09-28T07:15:30;1.80;;;0.90;;
21721;SDS011;11023;48.274;7.794;2022-09-28T07:17:57;2.10;;;0.70;;
21721;SDS011;11023;48.274;7.794;2022-09-28T07:20:28;2.83;;;1.00;;
21721;SDS011;11023;48.274;7.794;2022-09-28T07:22:54;2.03;;;0.80;;
21721;SDS011;11023;48.274;7.794;2022-09-28T07:25:21;3.53;;;0.93;;
21721;SDS011;11023;48.274;7.794;2022-09-28T07:27:47;3.35;;;1.00;;
21721;SDS011;11023;48.274;7.794;2022-09-28T07:30:13;2.00;;;0.85;;
21721;SDS011;11023;48.274;7.794;2022-09-28T07:32:40;2.60;;;1.00;;
21721;SDS011;11023;48.274;7.794;2022-09-28T07:35:06;2.13;;;1.00;;
21721;SDS011;11023;48.274;7.794;2022-09-28T07:37:36;2.28;;;0.90;;
21721;SDS011;11023;48.274;7.794;2022-09-28T07:40:06;2.65;;;0.70;;
21721;SDS011;11023;48.274;7.794;2022-09-28T07:42:51;2.55;;;0.80;;
21721;SDS011;11023;48.274;7.794;2022-09-28T07:45:16;6.95;;;1.10;;
21721;SDS011;11023;48.274;7.794;2022-09-28T07:47:45;5.22;;;1.15;;
21721;SDS011;11023;48.274;7.794;2022-09-28T07:50:11;3.80;;;0.85;;
21721;SDS011;11023;48.274;7.794;2022-09-28T07:52:37;7.00;;;1.08;;
21721;SDS011;11023;48.274;7.794;2022-09-28T07:55:03;3.85;;;1.08;;
21721;SDS011;11023;48.274;7.794;2022-09-28T07:57:29;3.63;;;0.90;;
21721;SDS011;11023;48.274;7.794;2022-09-28T07:59:57;6.75;;;1.40;;
21721;SDS011;11023;48.274;7.794;2022-09-28T08:02:24;6.07;;;1.20;;
21721;SDS011;11023;48.274;7.794;2022-09-28T08:04:50;4.55;;;1.10;;
21721;SDS011;11023;48.274;7.794;2022-09-28T08:07:16;4.53;;;1.00;;
21721;SDS011;11023;48.274;7.794;2022-09-28T08:09:47;4.22;;;1.00;;
21721;SDS011;11023;48.274;7.794;2022-09-28T08:12:12;4.55;;;0.80;;
21721;SDS011;11023;48.274;7.794;2022-09-28T08:14:38;5.03;;;1.00;;
21721;SDS011;11023;48.274;7.794;2022-09-28T08:17:04;2.55;;;0.90;;
21721;SDS011;11023;48.274;7.794;2022-09-28T08:19:31;2.65;;;0.80;;
21721;SDS011;11023;48.274;7.794;2022-09-28T08:22:16;5.03;;;1.13;;
21721;SDS011;11023;48.274;7.794;2022-09-28T08:24:43;4.80;;;0.82;;
21721;SDS011;11023;48.274;7.794;2022-09-28T08:27:10;4.47;;;1.20;;
21721;SDS011;11023;48.274;7.794;2022-09-28T08:29:36;4.93;;;1.05;;
21721;SDS011;11023;48.274;7.794;2022-09-28T08:32:02;5.80;;;1.45;;
21721;SDS011;11023;48.274;7.794;2022-09-28T08:34:32;2.55;;;1.00;;
21721;SDS011;11023;48.274;7.794;2022-09-28T08:37:04;2.00;;;1.20;;
21721;SDS011;11023;48.274;7.794;2022-09-28T08:39:32;5.03;;;1.30;;
21721;SDS011;11023;48.274;7.794;2022-09-28T08:42:05;6.95;;;1.75;;
21721;SDS011;11023;48.274;7.794;2022-09-28T08:44:52;4.00;;;1.40;;
21721;SDS011;11023;48.274;7.794;2022-09-28T08:50:58;6.18;;;1.50;;
21721;SDS011;11023;48.274;7.794;2022-09-28T08:58:54;5.00;;;1.50;;
21721;SDS011;11023;48.274;7.794;2022-09-28T09:01:22;5.00;;;1.60;;
21721;SDS011;11023;48.274;7.794;2022-09-28T09:03:55;4.30;;;1.88;;
21721;SDS011;11023;48.274;7.794;2022-09-28T09:06:32;6.32;;;1.60;;
21721;SDS011;11023;48.274;7.794;2022-09-28T09:12:02;4.50;;;1.45;;
21721;SDS011;11023;48.274;7.794;2022-09-28T09:14:36;5.97;;;1.30;;
21721;SDS011;11023;48.274;7.794;2022-09-28T09:20:24;5.68;;;1.63;;
21721;SDS011;11023;48.274;7.794;2022-09-28T09:23:04;5.05;;;1.45;;
21721;SDS011;11023;48.274;7.794;2022-09-28T09:25:47;6.45;;;1.40;;
21721;SDS011;11023;48.274;7.794;2022-09-28T09:39:46;3.38;;;1.55;;
21721;SDS011;11023;48.274;7.794;2022-09-28T09:45:02;6.18;;;1.50;;
21721;SDS011;11023;48.274;7.794;2022-09-28T09:47:58;9.63;;;1.63;;
21721;SDS011;11023;48.274;7.794;2022-09-28T09:56:05;4.20;;;1.63;;
21721;SDS011;11023;48.274;7.794;2022-09-28T09:59:26;4.22;;;1.50;;
21721;SDS011;11023;48.274;7.794;2022-09-28T10:01:42;6.05;;;1.35;;
21721;SDS011;11023;48.274;7.794;2022-09-28T10:07:02;4.78;;;1.30;;
21721;SDS011;11023;48.274;7.794;2022-09-28T10:09:30;3.00;;;1.02;;
21721;SDS011;11023;48.274;7.794;2022-09-28T10:12:02;4.47;;;1.30;;
21721;SDS011;11023;48.274;7.794;2022-09-28T10:14:28;4.85;;;1.65;;
21721;SDS011;11023;48.274;7.794;2022-09-28T10:16:55;5.10;;;1.48;;
21721;SDS011;11023;48.274;7.794;2022-09-28T10:19:27;5.47;;;1.52;;
21721;SDS011;11023;48.274;7.794;2022-09-28T10:21:56;5.93;;;1.73;;
21721;SDS011;11023;48.274;7.794;2022-09-28T10:24:28;8.65;;;1.50;;
21721;SDS011;11023;48.274;7.794;2022-09-28T10:26:59;8.40;;;1.70;;
21721;SDS011;11023;48.274;7.794;2022-09-28T10:29:32;5.68;;;1.45;;
21721;SDS011;11023;48.274;7.794;2022-09-28T10:32:16;4.93;;;1.52;;
21721;SDS011;11023;48.274;7.794;2022-09-28T10:34:44;7.15;;;1.50;;
21721;SDS011;11023;48.274;7.794;2022-09-28T10:37:09;3.63;;;1.23;;
21721;SDS011;11023;48.274;7.794;2022-09-28T10:39:36;3.85;;;1.17;;
21721;SDS011;11023;48.274;7.794;2022-09-28T10:42:05;3.50;;;1.25;;
21721;SDS011;11023;48.274;7.794;2022-09-28T10:44:34;4.05;;;1.17;;
21721;SDS011;11023;48.274;7.794;2022-09-28T10:47:24;5.18;;;1.33;;
21721;SDS011;11023;48.274;7.794;2022-09-28T10:49:52;5.47;;;1.25;;
21721;SDS011;11023;48.274;7.794;2022-09-28T10:55:30;4.43;;;1.30;;
21721;SDS011;11023;48.274;7.794;2022-09-28T10:57:56;5.55;;;1.50;;
21721;SDS011;11023;48.274;7.794;2022-09-28T11:02:58;4.65;;;1.40;;
21721;SDS011;11023;48.274;7.794;2022-09-28T11:05:25;5.95;;;1.70;;
21721;SDS011;11023;48.274;7.794;2022-09-28T11:07:55;8.00;;;1.63;;
21721;SDS011;11023;48.274;7.794;2022-09-28T11:10:24;3.72;;;1.75;;
21721;SDS011;11023;48.274;7.794;2022-09-28T11:12:53;6.10;;;1.58;;
21721;SDS011;11023;48.274;7.794;2022-09-28T11:15:20;4.70;;;1.30;;
21721;SDS011;11023;48.274;7.794;2022-09-28T11:17:49;4.30;;;1.50;;
21721;SDS011;11023;48.274;7.794;2022-09-28T11:22:51;3.78;;;1.70;;
21721;SDS011;11023;48.274;7.794;2022-09-28T11:25:19;5.80;;;1.42;;
21721;SDS011;11023;48.274;7.794;2022-09-28T11:30:21;6.18;;;1.75;;
21721;SDS011;11023;48.274;7.794;2022-09-28T11:33:16;4.18;;;1.27;;
21721;SDS011;11023;48.274;7.794;2022-09-28T11:35:49;4.45;;;1.48;;
21721;SDS011;11023;48.274;7.794;2022-09-28T11:41:39;4.63;;;1.20;;
21721;SDS011;11023;48.274;7.794;2022-09-28T11:44:20;5.15;;;1.30;;
21721;SDS011;11023;48.274;7.794;2022-09-28T11:49:32;3.40;;;1.08;;
21721;SDS011;11023;48.274;7.794;2022-09-28T11:52:00;7.30;;;1.40;;
21721;SDS011;11023;48.274;7.794;2022-09-28T11:54:41;2.83;;;1.20;;
21721;SDS011;11023;48.274;7.794;2022-09-28T11:57:20;3.10;;;1.10;;
21721;SDS011;11023;48.274;7.794;2022-09-28T11:59:59;4.20;;;1.20;;
21721;SDS011;11023;48.274;7.794;2022-09-28T12:03:17;6.53;;;1.45;;
21721;SDS011;11023;48.274;7.794;2022-09-28T12:05:28;4.80;;;1.30;;
21721;SDS011;11023;48.274;7.794;2022-09-28T12:13:25;2.78;;;1.27;;
21721;SDS011;11023;48.274;7.794;2022-09-28T12:15:55;4.00;;;1.45;;
21721;SDS011;11023;48.274;7.794;2022-09-28T12:23:52;3.28;;;1.08;;
21721;SDS011;11023;48.274;7.794;2022-09-28T12:26:30;5.80;;;1.20;;
21721;SDS011;11023;48.274;7.794;2022-09-28T12:28:58;4.93;;;1.13;;
21721;SDS011;11023;48.274;7.794;2022-09-28T12:31:32;6.80;;;1.23;;
21721;SDS011;11023;48.274;7.794;2022-09-28T12:34:02;2.60;;;1.00;;
21721;SDS011;11023;48.274;7.794;2022-09-28T12:36:31;3.10;;;1.08;;
21721;SDS011;11023;48.274;7.794;2022-09-28T12:47:37;2.88;;;0.93;;
21721;SDS011;11023;48.274;7.794;2022-09-28T12:50:10;4.40;;;1.02;;
21721;SDS011;11023;48.274;7.794;2022-09-28T12:52:52;2.92;;;0.98;;
21721;SDS011;11023;48.274;7.794;2022-09-28T13:14:53;3.55;;;1.15;;
21721;SDS011;11023;48.274;7.794;2022-09-28T13:20:20;4.68;;;1.23;;
21721;SDS011;11023;48.274;7.794;2022-09-28T13:22:50;3.22;;;0.90;;
21721;SDS011;11023;48.274;7.794;2022-09-28T13:25:38;2.75;;;0.95;;
21721;SDS011;11023;48.274;7.794;2022-09-28T13:28:08;2.75;;;1.10;;
21721;SDS011;11023;48.274;7.794;2022-09-28T13:30:37;2.63;;;0.98;;
21721;SDS011;11023;48.274;7.794;2022-09-28T13:33:04;2.97;;;1.00;;
21721;SDS011;11023;48.274;7.794;2022-09-28T13:35:34;3.30;;;0.90;;
21721;SDS011;11023;48.274;7.794;2022-09-28T13:46:20;3.80;;;1.50;;
21721;SDS011;11023;48.274;7.794;2022-09-28T13:54:28;1.98;;;0.90;;
21721;SDS011;11023;48.274;7.794;2022-09-28T13:59:29;4.57;;;0.98;;
21721;SDS011;11023;48.274;7.794;2022-09-28T14:05:04;1.85;;;0.88;;
21721;SDS011;11023;48.274;7.794;2022-09-28T14:07:55;3.95;;;0.88;;
21721;SDS011;11023;48.274;7.794;2022-09-28T14:13:12;2.38;;;1.10;;
21721;SDS011;11023;48.274;7.794;2022-09-28T14:18:43;1.33;;;0.80;;
21721;SDS011;11023;48.274;7.794;2022-09-28T14:24:07;2.88;;;1.17;;
21721;SDS011;11023;48.274;7.794;2022-09-28T14:29:26;2.72;;;0.95;;
21721;SDS011;11023;48.274;7.794;2022-09-28T14:31:54;2.40;;;0.82;;
21721;SDS011;11023;48.274;7.794;2022-09-28T14:34:32;2.17;;;1.00;;
21721;SDS011;11023;48.274;7.794;2022-09-28T14:40:18;3.35;;;0.95;;
21721;SDS011;11023;48.274;7.794;2022-09-28T14:43:21;2.83;;;0.93;;
21721;SDS011;11023;48.274;7.794;2022-09-28T14:56:37;2.05;;;0.80;;
21721;SDS011;11023;48.274;7.794;2022-09-28T14:59:04;2.63;;;0.80;;
21721;SDS011;11023;48.274;7.794;2022-09-28T15:01:34;2.47;;;1.10;;
21721;SDS011;11023;48.274;7.794;2022-09-28T15:04:01;3.40;;;1.20;;
21721;SDS011;11023;48.274;7.794;2022-09-28T15:06:46;2.58;;;0.70;;
21721;SDS011;11023;48.274;7.794;2022-09-28T15:12:15;2.83;;;0.90;;
21721;SDS011;11023;48.274;7.794;2022-09-28T15:14:51;6.35;;;1.13;;
21721;SDS011;11023;48.274;7.794;2022-09-28T15:17:19;7.85;;;1.05;;
21721;SDS011;11023;48.274;7.794;2022-09-28T15:22:44;1.58;;;0.90;;
21721;SDS011;11023;48.274;7.794;2022-09-28T15:25:15;2.83;;;1.30;;
21721;SDS011;11023;48.274;7.794;2022-09-28T15:27:49;4.57;;;1.20;;
21721;SDS011;11023;48.274;7.794;2022-09-28T15:32:52;3.63;;;1.70;;
21721;SDS011;11023;48.274;7.794;2022-09-28T15:35:24;3.00;;;1.20;;
21721;SDS011;11023;48.274;7.794;2022-09-28T15:37:51;2.30;;;1.13;;
21721;SDS011;11023;48.274;7.794;2022-09-28T15:40:32;3.45;;;1.10;;
21721;SDS011;11023;48.274;7.794;2022-09-28T15:43:01;5.00;;;1.10;;
21721;SDS011;11023;48.274;7.794;2022-09-28T15:45:44;3.15;;;1.00;;
21721;SDS011;11023;48.274;7.794;2022-09-28T15:51:04;2.25;;;1.10;;
21721;SDS011;11023;48.274;7.794;2022-09-28T15:53:35;2.30;;;0.95;;
21721;SDS011;11023;48.274;7.794;2022-09-28T15:56:10;1.15;;;0.60;;
21721;SDS011;11023;48.274;7.794;2022-09-28T15:58:36;3.42;;;0.93;;
21721;SDS011;11023;48.274;7.794;2022-09-28T16:03:51;2.42;;;0.93;;
21721;SDS011;11023;48.274;7.794;2022-09-28T16:06:17;3.22;;;1.00;;
21721;SDS011;11023;48.274;7.794;2022-09-28T16:08:43;2.42;;;0.90;;
21721;SDS011;11023;48.274;7.794;2022-09-28T16:13:54;1.75;;;1.00;;
21721;SDS011;11023;48.274;7.794;2022-09-28T16:16:32;2.67;;;0.88;;
21721;SDS011;11023;48.274;7.794;2022-09-28T16:19:12;1.83;;;0.90;;
21721;SDS011;11023;48.274;7.794;2022-09-28T16:21:50;3.47;;;2.30;;
21721;SDS011;11023;48.274;7.794;2022-09-28T16:27:22;3.42;;;1.90;;
21721;SDS011;11023;48.274;7.794;2022-09-28T16:30:01;3.67;;;1.98;;
21721;SDS011;11023;48.274;7.794;2022-09-28T16:37:56;1.98;;;0.90;;
21721;SDS011;11023;48.274;7.794;2022-09-28T16:40:24;2.08;;;0.80;;
21721;SDS011;11023;48.274;7.794;2022-09-28T16:42:50;1.33;;;0.73;;
21721;SDS011;11023;48.274;7.794;2022-09-28T16:45:20;1.33;;;0.77;;
21721;SDS011;11023;48.274;7.794;2022-09-28T16:47:55;1.85;;;0.80;;
21721;SDS011;11023;48.274;7.794;2022-09-28T16:50:22;1.35;;;0.73;;
21721;SDS011;11023;48.274;7.794;2022-09-28T16:52:50;1.88;;;0.90;;
21721;SDS011;11023;48.274;7.794;2022-09-28T16:55:44;0.93;;;0.60;;
21721;SDS011;11023;48.274;7.794;2022-09-28T16:58:12;1.27;;;0.68;;
21721;SDS011;11023;48.274;7.794;2022-09-28T17:00:38;1.13;;;0.68;;
21721;SDS011;11023;48.274;7.794;2022-09-28T17:03:10;2.90;;;1.05;;
21721;SDS011;11023;48.274;7.794;2022-09-28T17:05:45;2.53;;;0.80;;
21721;SDS011;11023;48.274;7.794;2022-09-28T17:08:16;1.65;;;1.00;;
21721;SDS011;11023;48.274;7.794;2022-09-28T17:10:49;3.83;;;1.02;;
21721;SDS011;11023;48.274;7.794;2022-09-28T17:13:17;1.67;;;1.10;;
21721;SDS011;11023;48.274;7.794;2022-09-28T17:15:47;2.40;;;0.90;;
21721;SDS011;11023;48.274;7.794;2022-09-28T17:18:14;1.23;;;1.00;;
21721;SDS011;11023;48.274;7.794;2022-09-28T17:20:42;2.67;;;1.48;;
21721;SDS011;11023;48.274;7.794;2022-09-28T17:23:13;2.75;;;1.42;;
21721;SDS011;11023;48.274;7.794;2022-09-28T17:25:40;2.10;;;1.30;;
21721;SDS011;11023;48.274;7.794;2022-09-28T17:28:06;2.33;;;1.30;;
21721;SDS011;11023;48.274;7.794;2022-09-28T17:30:42;2.30;;;1.35;;
21721;SDS011;11023;48.274;7.794;2022-09-28T17:33:07;3.20;;;1.27;;
21721;SDS011;11023;48.274;7.794;2022-09-28T17:35:33;3.80;;;1.30;;
21721;SDS011;11023;48.274;7.794;2022-09-28T17:38:01;1.77;;;1.20;;
21721;SDS011;11023;48.274;7.794;2022-09-28T17:40:27;1.85;;;1.00;;
21721;SDS011;11023;48.274;7.794;2022-09-28T17:42:54;2.15;;;1.20;;
21721;SDS011;11023;48.274;7.794;2022-09-28T17:45:21;1.13;;;0.90;;
21721;SDS011;11023;48.274;7.794;2022-09-28T17:47:50;3.97;;;1.10;;
21721;SDS011;11023;48.274;7.794;2022-09-28T17:52:49;2.10;;;1.00;;
21721;SDS011;11023;48.274;7.794;2022-09-28T17:55:20;4.60;;;2.10;;
21721;SDS011;11023;48.274;7.794;2022-09-28T17:57:47;8.73;;;5.00;;
21721;SDS011;11023;48.274;7.794;2022-09-28T18:00:14;9.25;;;5.60;;
21721;SDS011;11023;48.274;7.794;2022-09-28T18:02:40;6.32;;;3.53;;
21721;SDS011;11023;48.274;7.794;2022-09-28T18:05:07;7.63;;;5.57;;
21721;SDS011;11023;48.274;7.794;2022-09-28T18:07:35;5.53;;;4.07;;
21721;SDS011;11023;48.274;7.794;2022-09-28T18:10:02;3.08;;;2.42;;
21721;SDS011;11023;48.274;7.794;2022-09-28T18:12:29;2.88;;;1.27;;
21721;SDS011;11023;48.274;7.794;2022-09-28T18:14:55;3.17;;;1.20;;
21721;SDS011;11023;48.274;7.794;2022-09-28T18:17:20;0.93;;;0.73;;
21721;SDS011;11023;48.274;7.794;2022-09-28T18:19:46;3.65;;;1.20;;
21721;SDS011;11023;48.274;7.794;2022-09-28T18:22:12;1.92;;;0.98;;
21721;SDS011;11023;48.274;7.794;2022-09-28T18:24:38;1.38;;;1.08;;
21721;SDS011;11023;48.274;7.794;2022-09-28T18:27:04;1.58;;;1.00;;
21721;SDS011;11023;48.274;7.794;2022-09-28T18:29:30;2.47;;;1.00;;
21721;SDS011;11023;48.274;7.794;2022-09-28T18:31:55;1.58;;;1.10;;
21721;SDS011;11023;48.274;7.794;2022-09-28T18:34:21;2.60;;;1.20;;
21721;SDS011;11023;48.274;7.794;2022-09-28T18:36:47;2.80;;;1.33;;